sensor_id;sensor_type;location;lat;lon;timestamp;P1;durP1;ratioP1;P2;durP2;ratioP2
53871;SDS011;39787;53.174;5.798;2023-07-16T00:00:52;18.87;;;5.90;;
53871;SDS011;39787;53.174;5.798;2023-07-16T00:01:52;18.63;;;4.00;;
53871;SDS011;39787;53.174;5.798;2023-07-16T00:02:53;22.60;;;5.67;;
53871;SDS011;39787;53.174;5.798;2023-07-16T00:03:53;29.70;;;5.70;;
53871;SDS011;39787;53.174;5.798;2023-07-16T00:04:54;21.93;;;6.17;;
53871;SDS011;39787;53.174;5.798;2023-07-16T00:05:54;25.17;;;5.33;;
53871;SDS011;39787;53.174;5.798;2023-07-16T00:06:55;21.20;;;5.47;;
53871;SDS011;39787;53.174;5.798;2023-07-16T00:07:55;19.07;;;5.00;;
53871;SDS011;39787;53.174;5.798;2023-07-16T00:08:55;22.27;;;5.23;;
53871;SDS011;39787;53.174;5.798;2023-07-16T00:09:56;20.53;;;5.20;;
53871;SDS011;39787;53.174;5.798;2023-07-16T00:10:56;15.07;;;4.53;;
53871;SDS011;39787;53.174;5.798;2023-07-16T00:11:57;18.10;;;4.67;;
53871;SDS011;39787;53.174;5.798;2023-07-16T00:12:57;20.67;;;5.63;;
53871;SDS011;39787;53.174;5.798;2023-07-16T00:13:58;23.03;;;4.97;;
53871;SDS011;39787;53.174;5.798;2023-07-16T00:14:59;15.38;;;4.85;;
53871;SDS011;39787;53.174;5.798;2023-07-16T00:15:59;17.20;;;4.83;;
53871;SDS011;39787;53.174;5.798;2023-07-16T00:17:00;19.63;;;5.60;;
53871;SDS011;39787;53.174;5.798;2023-07-16T00:18:00;13.83;;;4.40;;
53871;SDS011;39787;53.174;5.798;2023-07-16T00:19:01;15.83;;;4.87;;
53871;SDS011;39787;53.174;5.798;2023-07-16T00:20:01;15.50;;;4.67;;
53871;SDS011;39787;53.174;5.798;2023-07-16T00:21:02;19.00;;;4.93;;
53871;SDS011;39787;53.174;5.798;2023-07-16T00:22:03;22.90;;;5.27;;
53871;SDS011;39787;53.174;5.798;2023-07-16T00:23:03;14.17;;;4.97;;
53871;SDS011;39787;53.174;5.798;2023-07-16T00:24:04;18.53;;;4.30;;
53871;SDS011;39787;53.174;5.798;2023-07-16T00:25:05;18.00;;;4.88;;
53871;SDS011;39787;53.174;5.798;2023-07-16T00:27:06;16.60;;;5.22;;
53871;SDS011;39787;53.174;5.798;2023-07-16T00:28:07;18.93;;;4.97;;
53871;SDS011;39787;53.174;5.798;2023-07-16T00:29:07;13.47;;;5.00;;
53871;SDS011;39787;53.174;5.798;2023-07-16T00:30:09;17.65;;;6.05;;
53871;SDS011;39787;53.174;5.798;2023-07-16T00:31:09;17.05;;;5.07;;
53871;SDS011;39787;53.174;5.798;2023-07-16T00:32:11;24.10;;;4.93;;
53871;SDS011;39787;53.174;5.798;2023-07-16T00:33:11;17.90;;;5.50;;
53871;SDS011;39787;53.174;5.798;2023-07-16T00:34:12;22.03;;;6.07;;
53871;SDS011;39787;53.174;5.798;2023-07-16T00:35:12;20.43;;;5.90;;
53871;SDS011;39787;53.174;5.798;2023-07-16T00:36:13;20.00;;;4.97;;
53871;SDS011;39787;53.174;5.798;2023-07-16T00:37:13;18.87;;;5.97;;
53871;SDS011;39787;53.174;5.798;2023-07-16T00:38:14;21.30;;;4.63;;
53871;SDS011;39787;53.174;5.798;2023-07-16T00:39:14;18.83;;;4.63;;
53871;SDS011;39787;53.174;5.798;2023-07-16T00:40:15;16.17;;;4.93;;
53871;SDS011;39787;53.174;5.798;2023-07-16T00:41:15;20.20;;;4.70;;
53871;SDS011;39787;53.174;5.798;2023-07-16T00:42:16;12.87;;;3.93;;
53871;SDS011;39787;53.174;5.798;2023-07-16T00:43:16;17.93;;;5.00;;
53871;SDS011;39787;53.174;5.798;2023-07-16T00:44:17;25.63;;;5.27;;
53871;SDS011;39787;53.174;5.798;2023-07-16T00:45:17;16.07;;;4.70;;
53871;SDS011;39787;53.174;5.798;2023-07-16T00:46:18;15.67;;;4.23;;
53871;SDS011;39787;53.174;5.798;2023-07-16T00:47:18;18.40;;;5.30;;
53871;SDS011;39787;53.174;5.798;2023-07-16T00:48:19;15.23;;;4.70;;
53871;SDS011;39787;53.174;5.798;2023-07-16T00:49:20;16.17;;;5.47;;
53871;SDS011;39787;53.174;5.798;2023-07-16T00:50:20;15.33;;;4.93;;
53871;SDS011;39787;53.174;5.798;2023-07-16T00:51:21;18.50;;;4.53;;
53871;SDS011;39787;53.174;5.798;2023-07-16T00:52:24;25.85;;;5.72;;
53871;SDS011;39787;53.174;5.798;2023-07-16T00:53:24;17.43;;;4.80;;
53871;SDS011;39787;53.174;5.798;2023-07-16T00:54:25;16.33;;;4.80;;
53871;SDS011;39787;53.174;5.798;2023-07-16T00:55:26;18.80;;;5.18;;
53871;SDS011;39787;53.174;5.798;2023-07-16T00:56:28;14.15;;;4.50;;
53871;SDS011;39787;53.174;5.798;2023-07-16T00:57:29;19.15;;;4.68;;
53871;SDS011;39787;53.174;5.798;2023-07-16T00:58:31;17.13;;;5.05;;
53871;SDS011;39787;53.174;5.798;2023-07-16T00:59:31;15.03;;;4.67;;
53871;SDS011;39787;53.174;5.798;2023-07-16T01:00:32;19.07;;;4.60;;
53871;SDS011;39787;53.174;5.798;2023-07-16T01:01:33;13.57;;;4.43;;
53871;SDS011;39787;53.174;5.798;2023-07-16T01:02:34;19.03;;;5.60;;
53871;SDS011;39787;53.174;5.798;2023-07-16T01:03:34;20.70;;;4.90;;
53871;SDS011;39787;53.174;5.798;2023-07-16T01:04:35;20.45;;;5.53;;
53871;SDS011;39787;53.174;5.798;2023-07-16T01:05:42;25.33;;;5.87;;
53871;SDS011;39787;53.174;5.798;2023-07-16T01:06:53;17.67;;;4.80;;
53871;SDS011;39787;53.174;5.798;2023-07-16T01:07:58;19.60;;;5.18;;
53871;SDS011;39787;53.174;5.798;2023-07-16T01:09:11;18.88;;;4.72;;
53871;SDS011;39787;53.174;5.798;2023-07-16T01:10:16;16.52;;;5.45;;
53871;SDS011;39787;53.174;5.798;2023-07-16T01:11:17;16.05;;;4.22;;
53871;SDS011;39787;53.174;5.798;2023-07-16T01:12:19;15.77;;;5.05;;
53871;SDS011;39787;53.174;5.798;2023-07-16T01:13:22;14.15;;;4.90;;
53871;SDS011;39787;53.174;5.798;2023-07-16T01:14:23;20.35;;;5.50;;
53871;SDS011;39787;53.174;5.798;2023-07-16T01:15:24;18.52;;;4.93;;
53871;SDS011;39787;53.174;5.798;2023-07-16T01:16:25;15.57;;;4.63;;
53871;SDS011;39787;53.174;5.798;2023-07-16T01:17:25;13.50;;;4.57;;
53871;SDS011;39787;53.174;5.798;2023-07-16T01:18:25;20.40;;;4.77;;
53871;SDS011;39787;53.174;5.798;2023-07-16T01:19:26;13.60;;;4.80;;
53871;SDS011;39787;53.174;5.798;2023-07-16T01:20:27;19.67;;;4.53;;
53871;SDS011;39787;53.174;5.798;2023-07-16T01:21:31;18.38;;;5.28;;
53871;SDS011;39787;53.174;5.798;2023-07-16T01:25:43;16.02;;;5.40;;
53871;SDS011;39787;53.174;5.798;2023-07-16T01:29:58;19.83;;;4.30;;
53871;SDS011;39787;53.174;5.798;2023-07-16T01:31:02;17.23;;;4.53;;
53871;SDS011;39787;53.174;5.798;2023-07-16T01:32:03;20.23;;;4.47;;
53871;SDS011;39787;53.174;5.798;2023-07-16T01:33:05;20.85;;;4.07;;
53871;SDS011;39787;53.174;5.798;2023-07-16T01:34:08;14.85;;;4.47;;
53871;SDS011;39787;53.174;5.798;2023-07-16T01:35:11;22.23;;;4.78;;
53871;SDS011;39787;53.174;5.798;2023-07-16T01:36:13;12.15;;;4.38;;
53871;SDS011;39787;53.174;5.798;2023-07-16T01:37:15;14.02;;;4.00;;
53871;SDS011;39787;53.174;5.798;2023-07-16T01:38:16;20.05;;;5.15;;
53871;SDS011;39787;53.174;5.798;2023-07-16T01:39:17;12.73;;;4.20;;
53871;SDS011;39787;53.174;5.798;2023-07-16T01:40:18;13.30;;;4.78;;
53871;SDS011;39787;53.174;5.798;2023-07-16T01:41:19;12.33;;;4.47;;
53871;SDS011;39787;53.174;5.798;2023-07-16T01:42:20;14.03;;;4.00;;
53871;SDS011;39787;53.174;5.798;2023-07-16T01:43:20;13.27;;;4.85;;
53871;SDS011;39787;53.174;5.798;2023-07-16T01:44:21;12.00;;;4.60;;
53871;SDS011;39787;53.174;5.798;2023-07-16T01:45:21;15.50;;;4.30;;
53871;SDS011;39787;53.174;5.798;2023-07-16T01:46:22;12.87;;;4.23;;
53871;SDS011;39787;53.174;5.798;2023-07-16T01:47:24;15.85;;;4.82;;
53871;SDS011;39787;53.174;5.798;2023-07-16T01:48:49;16.85;;;4.35;;
53871;SDS011;39787;53.174;5.798;2023-07-16T01:49:49;11.70;;;4.70;;
53871;SDS011;39787;53.174;5.798;2023-07-16T01:50:50;14.07;;;4.47;;
53871;SDS011;39787;53.174;5.798;2023-07-16T01:51:50;14.07;;;4.47;;
53871;SDS011;39787;53.174;5.798;2023-07-16T01:52:51;20.40;;;4.97;;
53871;SDS011;39787;53.174;5.798;2023-07-16T01:53:51;13.23;;;4.33;;
53871;SDS011;39787;53.174;5.798;2023-07-16T01:54:52;14.03;;;3.97;;
53871;SDS011;39787;53.174;5.798;2023-07-16T01:55:52;15.17;;;4.17;;
53871;SDS011;39787;53.174;5.798;2023-07-16T01:56:53;16.77;;;4.20;;
53871;SDS011;39787;53.174;5.798;2023-07-16T01:57:53;18.77;;;4.43;;
53871;SDS011;39787;53.174;5.798;2023-07-16T01:58:54;15.17;;;3.83;;
53871;SDS011;39787;53.174;5.798;2023-07-16T01:59:54;15.77;;;3.87;;
53871;SDS011;39787;53.174;5.798;2023-07-16T02:00:55;15.47;;;3.43;;
53871;SDS011;39787;53.174;5.798;2023-07-16T02:01:55;13.83;;;3.30;;
53871;SDS011;39787;53.174;5.798;2023-07-16T02:02:56;12.13;;;3.20;;
53871;SDS011;39787;53.174;5.798;2023-07-16T02:03:56;10.83;;;3.83;;
53871;SDS011;39787;53.174;5.798;2023-07-16T02:04:56;17.10;;;4.20;;
53871;SDS011;39787;53.174;5.798;2023-07-16T02:05:57;15.50;;;3.97;;
53871;SDS011;39787;53.174;5.798;2023-07-16T02:06:57;15.17;;;3.87;;
53871;SDS011;39787;53.174;5.798;2023-07-16T02:07:58;14.97;;;3.63;;
53871;SDS011;39787;53.174;5.798;2023-07-16T02:08:58;15.43;;;4.33;;
53871;SDS011;39787;53.174;5.798;2023-07-16T02:09:59;19.97;;;5.03;;
53871;SDS011;39787;53.174;5.798;2023-07-16T02:10:59;15.90;;;4.43;;
53871;SDS011;39787;53.174;5.798;2023-07-16T02:12:00;11.10;;;4.13;;
53871;SDS011;39787;53.174;5.798;2023-07-16T02:13:00;12.67;;;3.83;;
53871;SDS011;39787;53.174;5.798;2023-07-16T02:14:01;11.27;;;3.67;;
53871;SDS011;39787;53.174;5.798;2023-07-16T02:15:01;13.20;;;4.17;;
53871;SDS011;39787;53.174;5.798;2023-07-16T02:16:02;13.65;;;4.28;;
53871;SDS011;39787;53.174;5.798;2023-07-16T02:17:03;10.83;;;4.00;;
53871;SDS011;39787;53.174;5.798;2023-07-16T02:18:04;11.93;;;3.83;;
53871;SDS011;39787;53.174;5.798;2023-07-16T02:19:06;15.80;;;3.92;;
53871;SDS011;39787;53.174;5.798;2023-07-16T02:20:07;12.30;;;4.17;;
53871;SDS011;39787;53.174;5.798;2023-07-16T02:21:08;10.65;;;3.83;;
53871;SDS011;39787;53.174;5.798;2023-07-16T02:22:08;15.70;;;3.60;;
53871;SDS011;39787;53.174;5.798;2023-07-16T02:23:09;11.43;;;3.67;;
53871;SDS011;39787;53.174;5.798;2023-07-16T02:24:09;10.53;;;3.03;;
53871;SDS011;39787;53.174;5.798;2023-07-16T02:25:10;17.67;;;3.37;;
53871;SDS011;39787;53.174;5.798;2023-07-16T02:26:10;13.33;;;4.07;;
53871;SDS011;39787;53.174;5.798;2023-07-16T02:27:10;12.50;;;3.93;;
53871;SDS011;39787;53.174;5.798;2023-07-16T02:28:11;10.43;;;3.40;;
53871;SDS011;39787;53.174;5.798;2023-07-16T02:29:11;18.00;;;4.20;;
53871;SDS011;39787;53.174;5.798;2023-07-16T02:30:13;13.60;;;4.10;;
53871;SDS011;39787;53.174;5.798;2023-07-16T02:31:14;18.58;;;5.47;;
53871;SDS011;39787;53.174;5.798;2023-07-16T02:32:15;12.97;;;3.97;;
53871;SDS011;39787;53.174;5.798;2023-07-16T02:33:15;15.87;;;4.50;;
53871;SDS011;39787;53.174;5.798;2023-07-16T02:34:16;21.67;;;4.83;;
53871;SDS011;39787;53.174;5.798;2023-07-16T02:35:16;12.20;;;4.30;;
53871;SDS011;39787;53.174;5.798;2023-07-16T02:36:17;13.60;;;4.38;;
53871;SDS011;39787;53.174;5.798;2023-07-16T02:37:17;13.20;;;4.33;;
53871;SDS011;39787;53.174;5.798;2023-07-16T02:38:18;13.10;;;4.90;;
53871;SDS011;39787;53.174;5.798;2023-07-16T02:39:18;16.13;;;4.73;;
53871;SDS011;39787;53.174;5.798;2023-07-16T02:40:19;10.53;;;4.23;;
53871;SDS011;39787;53.174;5.798;2023-07-16T02:41:19;9.80;;;4.00;;
53871;SDS011;39787;53.174;5.798;2023-07-16T02:42:20;12.37;;;4.40;;
53871;SDS011;39787;53.174;5.798;2023-07-16T02:43:20;11.27;;;4.23;;
53871;SDS011;39787;53.174;5.798;2023-07-16T02:44:21;12.50;;;5.00;;
53871;SDS011;39787;53.174;5.798;2023-07-16T02:45:21;18.57;;;4.77;;
53871;SDS011;39787;53.174;5.798;2023-07-16T02:46:22;16.37;;;4.67;;
53871;SDS011;39787;53.174;5.798;2023-07-16T02:47:22;15.43;;;4.87;;
53871;SDS011;39787;53.174;5.798;2023-07-16T02:48:23;13.57;;;4.97;;
53871;SDS011;39787;53.174;5.798;2023-07-16T02:49:23;11.40;;;4.43;;
53871;SDS011;39787;53.174;5.798;2023-07-16T02:50:24;14.70;;;5.43;;
53871;SDS011;39787;53.174;5.798;2023-07-16T02:51:24;11.87;;;4.37;;
53871;SDS011;39787;53.174;5.798;2023-07-16T02:52:25;15.63;;;5.63;;
53871;SDS011;39787;53.174;5.798;2023-07-16T02:53:25;12.13;;;4.33;;
53871;SDS011;39787;53.174;5.798;2023-07-16T02:54:26;13.83;;;5.27;;
53871;SDS011;39787;53.174;5.798;2023-07-16T02:55:26;17.00;;;4.53;;
53871;SDS011;39787;53.174;5.798;2023-07-16T02:56:27;15.53;;;4.67;;
53871;SDS011;39787;53.174;5.798;2023-07-16T02:57:28;13.60;;;5.00;;
53871;SDS011;39787;53.174;5.798;2023-07-16T02:58:28;16.42;;;5.78;;
53871;SDS011;39787;53.174;5.798;2023-07-16T02:59:29;14.23;;;5.40;;
53871;SDS011;39787;53.174;5.798;2023-07-16T03:00:32;18.67;;;4.87;;
53871;SDS011;39787;53.174;5.798;2023-07-16T03:01:33;16.73;;;5.70;;
53871;SDS011;39787;53.174;5.798;2023-07-16T03:02:34;15.47;;;5.07;;
53871;SDS011;39787;53.174;5.798;2023-07-16T03:03:34;16.70;;;5.47;;
53871;SDS011;39787;53.174;5.798;2023-07-16T03:04:35;19.23;;;5.10;;
53871;SDS011;39787;53.174;5.798;2023-07-16T03:05:35;15.03;;;5.10;;
53871;SDS011;39787;53.174;5.798;2023-07-16T03:06:35;21.33;;;6.17;;
53871;SDS011;39787;53.174;5.798;2023-07-16T03:07:36;14.23;;;5.03;;
53871;SDS011;39787;53.174;5.798;2023-07-16T03:08:36;20.83;;;6.23;;
53871;SDS011;39787;53.174;5.798;2023-07-16T03:09:37;18.93;;;5.63;;
53871;SDS011;39787;53.174;5.798;2023-07-16T03:10:37;15.20;;;5.13;;
53871;SDS011;39787;53.174;5.798;2023-07-16T03:11:38;13.63;;;5.33;;
53871;SDS011;39787;53.174;5.798;2023-07-16T03:12:38;19.63;;;6.20;;
53871;SDS011;39787;53.174;5.798;2023-07-16T03:13:39;16.10;;;5.17;;
53871;SDS011;39787;53.174;5.798;2023-07-16T03:14:39;15.53;;;5.37;;
53871;SDS011;39787;53.174;5.798;2023-07-16T03:15:40;14.73;;;5.40;;
53871;SDS011;39787;53.174;5.798;2023-07-16T03:16:40;14.33;;;4.93;;
53871;SDS011;39787;53.174;5.798;2023-07-16T03:17:41;13.73;;;5.03;;
53871;SDS011;39787;53.174;5.798;2023-07-16T03:18:41;12.13;;;5.47;;
53871;SDS011;39787;53.174;5.798;2023-07-16T03:19:44;14.32;;;5.63;;
53871;SDS011;39787;53.174;5.798;2023-07-16T03:20:44;12.20;;;5.80;;
53871;SDS011;39787;53.174;5.798;2023-07-16T03:21:45;22.63;;;6.27;;
53871;SDS011;39787;53.174;5.798;2023-07-16T03:22:45;14.73;;;5.30;;
53871;SDS011;39787;53.174;5.798;2023-07-16T03:23:45;22.33;;;6.27;;
53871;SDS011;39787;53.174;5.798;2023-07-16T03:24:46;17.10;;;5.40;;
53871;SDS011;39787;53.174;5.798;2023-07-16T03:25:46;19.43;;;5.43;;
53871;SDS011;39787;53.174;5.798;2023-07-16T03:26:47;17.33;;;5.93;;
53871;SDS011;39787;53.174;5.798;2023-07-16T03:27:47;12.33;;;5.43;;
53871;SDS011;39787;53.174;5.798;2023-07-16T03:28:48;14.23;;;5.43;;
53871;SDS011;39787;53.174;5.798;2023-07-16T03:29:48;18.40;;;5.80;;
53871;SDS011;39787;53.174;5.798;2023-07-16T03:30:50;19.60;;;5.40;;
53871;SDS011;39787;53.174;5.798;2023-07-16T03:31:50;13.52;;;5.35;;
53871;SDS011;39787;53.174;5.798;2023-07-16T03:32:51;17.77;;;5.83;;
53871;SDS011;39787;53.174;5.798;2023-07-16T03:33:51;19.60;;;6.23;;
53871;SDS011;39787;53.174;5.798;2023-07-16T03:34:52;17.67;;;6.00;;
53871;SDS011;39787;53.174;5.798;2023-07-16T03:35:52;16.40;;;5.70;;
53871;SDS011;39787;53.174;5.798;2023-07-16T03:36:53;14.07;;;5.73;;
53871;SDS011;39787;53.174;5.798;2023-07-16T03:37:53;21.87;;;5.77;;
53871;SDS011;39787;53.174;5.798;2023-07-16T03:38:54;14.90;;;5.57;;
53871;SDS011;39787;53.174;5.798;2023-07-16T03:39:54;15.87;;;6.07;;
53871;SDS011;39787;53.174;5.798;2023-07-16T03:40:55;16.47;;;5.63;;
53871;SDS011;39787;53.174;5.798;2023-07-16T03:41:55;16.37;;;6.07;;
53871;SDS011;39787;53.174;5.798;2023-07-16T03:42:55;12.93;;;5.40;;
53871;SDS011;39787;53.174;5.798;2023-07-16T03:43:56;18.03;;;5.57;;
53871;SDS011;39787;53.174;5.798;2023-07-16T03:44:56;17.13;;;5.97;;
53871;SDS011;39787;53.174;5.798;2023-07-16T03:45:57;17.30;;;5.60;;
53871;SDS011;39787;53.174;5.798;2023-07-16T03:46:57;17.10;;;5.77;;
53871;SDS011;39787;53.174;5.798;2023-07-16T03:47:58;16.07;;;5.17;;
53871;SDS011;39787;53.174;5.798;2023-07-16T03:48:58;13.43;;;5.87;;
53871;SDS011;39787;53.174;5.798;2023-07-16T03:49:59;13.77;;;5.20;;
53871;SDS011;39787;53.174;5.798;2023-07-16T03:50:59;19.03;;;5.57;;
53871;SDS011;39787;53.174;5.798;2023-07-16T03:52:00;21.87;;;5.57;;
53871;SDS011;39787;53.174;5.798;2023-07-16T03:53:01;18.03;;;6.30;;
53871;SDS011;39787;53.174;5.798;2023-07-16T03:54:02;17.58;;;5.90;;
53871;SDS011;39787;53.174;5.798;2023-07-16T03:55:03;16.07;;;5.60;;
53871;SDS011;39787;53.174;5.798;2023-07-16T03:56:04;11.63;;;5.22;;
53871;SDS011;39787;53.174;5.798;2023-07-16T03:57:04;14.93;;;5.53;;
53871;SDS011;39787;53.174;5.798;2023-07-16T03:58:05;17.73;;;6.25;;
53871;SDS011;39787;53.174;5.798;2023-07-16T03:59:05;12.37;;;5.07;;
53871;SDS011;39787;53.174;5.798;2023-07-16T04:00:06;19.17;;;5.83;;
53871;SDS011;39787;53.174;5.798;2023-07-16T04:01:07;16.20;;;5.53;;
53871;SDS011;39787;53.174;5.798;2023-07-16T04:02:08;15.17;;;5.37;;
53871;SDS011;39787;53.174;5.798;2023-07-16T04:03:08;16.75;;;5.80;;
53871;SDS011;39787;53.174;5.798;2023-07-16T04:04:09;22.93;;;5.97;;
53871;SDS011;39787;53.174;5.798;2023-07-16T04:05:09;17.30;;;5.80;;
53871;SDS011;39787;53.174;5.798;2023-07-16T04:06:10;15.23;;;5.07;;
53871;SDS011;39787;53.174;5.798;2023-07-16T04:08:12;17.48;;;6.40;;
53871;SDS011;39787;53.174;5.798;2023-07-16T04:09:12;15.37;;;5.43;;
53871;SDS011;39787;53.174;5.798;2023-07-16T04:10:13;14.53;;;6.10;;
53871;SDS011;39787;53.174;5.798;2023-07-16T04:11:13;12.83;;;5.33;;
53871;SDS011;39787;53.174;5.798;2023-07-16T04:12:14;17.37;;;5.57;;
53871;SDS011;39787;53.174;5.798;2023-07-16T04:13:14;14.57;;;5.47;;
53871;SDS011;39787;53.174;5.798;2023-07-16T04:14:15;17.13;;;5.53;;
53871;SDS011;39787;53.174;5.798;2023-07-16T04:15:15;17.05;;;5.55;;
53871;SDS011;39787;53.174;5.798;2023-07-16T04:16:16;16.87;;;6.53;;
53871;SDS011;39787;53.174;5.798;2023-07-16T04:17:16;20.13;;;6.07;;
53871;SDS011;39787;53.174;5.798;2023-07-16T04:18:17;17.87;;;6.23;;
53871;SDS011;39787;53.174;5.798;2023-07-16T04:19:17;15.73;;;5.87;;
53871;SDS011;39787;53.174;5.798;2023-07-16T04:20:18;15.87;;;6.10;;
53871;SDS011;39787;53.174;5.798;2023-07-16T04:21:18;15.63;;;6.23;;
53871;SDS011;39787;53.174;5.798;2023-07-16T04:22:19;12.23;;;5.97;;
53871;SDS011;39787;53.174;5.798;2023-07-16T04:23:19;17.30;;;6.50;;
53871;SDS011;39787;53.174;5.798;2023-07-16T04:24:20;10.77;;;5.13;;
53871;SDS011;39787;53.174;5.798;2023-07-16T04:25:20;15.77;;;5.57;;
53871;SDS011;39787;53.174;5.798;2023-07-16T04:26:21;16.33;;;5.83;;
53871;SDS011;39787;53.174;5.798;2023-07-16T04:27:21;17.10;;;5.37;;
53871;SDS011;39787;53.174;5.798;2023-07-16T04:28:22;18.43;;;6.43;;
53871;SDS011;39787;53.174;5.798;2023-07-16T04:29:22;21.03;;;6.13;;
53871;SDS011;39787;53.174;5.798;2023-07-16T04:30:23;14.27;;;5.57;;
53871;SDS011;39787;53.174;5.798;2023-07-16T04:31:23;17.23;;;5.60;;
53871;SDS011;39787;53.174;5.798;2023-07-16T04:32:24;16.87;;;5.73;;
53871;SDS011;39787;53.174;5.798;2023-07-16T04:33:24;13.60;;;4.67;;
53871;SDS011;39787;53.174;5.798;2023-07-16T04:34:25;12.60;;;5.13;;
53871;SDS011;39787;53.174;5.798;2023-07-16T04:35:25;17.87;;;5.57;;
53871;SDS011;39787;53.174;5.798;2023-07-16T04:36:26;11.47;;;5.60;;
53871;SDS011;39787;53.174;5.798;2023-07-16T04:37:26;13.20;;;5.43;;
53871;SDS011;39787;53.174;5.798;2023-07-16T04:38:27;11.17;;;4.90;;
53871;SDS011;39787;53.174;5.798;2023-07-16T04:39:27;18.50;;;6.17;;
53871;SDS011;39787;53.174;5.798;2023-07-16T04:40:30;18.20;;;5.63;;
53871;SDS011;39787;53.174;5.798;2023-07-16T04:41:31;14.63;;;5.80;;
53871;SDS011;39787;53.174;5.798;2023-07-16T04:42:31;17.13;;;5.73;;
53871;SDS011;39787;53.174;5.798;2023-07-16T04:43:32;14.47;;;5.03;;
53871;SDS011;39787;53.174;5.798;2023-07-16T04:44:32;11.13;;;4.93;;
53871;SDS011;39787;53.174;5.798;2023-07-16T04:45:33;15.43;;;5.03;;
53871;SDS011;39787;53.174;5.798;2023-07-16T04:46:33;15.57;;;5.07;;
53871;SDS011;39787;53.174;5.798;2023-07-16T04:47:34;10.53;;;4.33;;
53871;SDS011;39787;53.174;5.798;2023-07-16T04:48:34;15.67;;;5.03;;
53871;SDS011;39787;53.174;5.798;2023-07-16T04:49:35;14.23;;;4.90;;
53871;SDS011;39787;53.174;5.798;2023-07-16T04:50:35;13.33;;;4.87;;
53871;SDS011;39787;53.174;5.798;2023-07-16T04:51:36;13.80;;;5.40;;
53871;SDS011;39787;53.174;5.798;2023-07-16T04:52:37;23.07;;;5.87;;
53871;SDS011;39787;53.174;5.798;2023-07-16T04:53:38;13.88;;;5.32;;
53871;SDS011;39787;53.174;5.798;2023-07-16T04:54:38;17.20;;;4.87;;
53871;SDS011;39787;53.174;5.798;2023-07-16T04:55:39;17.42;;;5.63;;
53871;SDS011;39787;53.174;5.798;2023-07-16T04:56:40;19.15;;;5.45;;
53871;SDS011;39787;53.174;5.798;2023-07-16T04:57:40;16.87;;;6.17;;
53871;SDS011;39787;53.174;5.798;2023-07-16T04:58:41;15.33;;;5.10;;
53871;SDS011;39787;53.174;5.798;2023-07-16T04:59:42;15.20;;;5.80;;
53871;SDS011;39787;53.174;5.798;2023-07-16T05:00:42;21.17;;;6.00;;
53871;SDS011;39787;53.174;5.798;2023-07-16T05:01:43;16.90;;;6.27;;
53871;SDS011;39787;53.174;5.798;2023-07-16T05:02:43;21.50;;;6.83;;
53871;SDS011;39787;53.174;5.798;2023-07-16T05:03:44;18.20;;;6.50;;
53871;SDS011;39787;53.174;5.798;2023-07-16T05:04:44;15.83;;;6.37;;
53871;SDS011;39787;53.174;5.798;2023-07-16T05:05:45;13.73;;;5.90;;
53871;SDS011;39787;53.174;5.798;2023-07-16T05:06:45;14.87;;;5.57;;
53871;SDS011;39787;53.174;5.798;2023-07-16T05:07:46;17.83;;;6.50;;
53871;SDS011;39787;53.174;5.798;2023-07-16T05:08:46;14.83;;;6.23;;
53871;SDS011;39787;53.174;5.798;2023-07-16T05:09:47;17.63;;;6.20;;
53871;SDS011;39787;53.174;5.798;2023-07-16T05:10:47;18.23;;;6.90;;
53871;SDS011;39787;53.174;5.798;2023-07-16T05:11:48;14.30;;;5.17;;
53871;SDS011;39787;53.174;5.798;2023-07-16T05:12:48;16.93;;;5.07;;
53871;SDS011;39787;53.174;5.798;2023-07-16T05:13:49;13.63;;;5.60;;
53871;SDS011;39787;53.174;5.798;2023-07-16T05:14:49;10.20;;;4.60;;
53871;SDS011;39787;53.174;5.798;2023-07-16T05:15:49;14.10;;;5.23;;
53871;SDS011;39787;53.174;5.798;2023-07-16T05:16:50;14.13;;;5.13;;
53871;SDS011;39787;53.174;5.798;2023-07-16T05:17:50;10.57;;;4.97;;
53871;SDS011;39787;53.174;5.798;2023-07-16T05:18:51;16.53;;;5.73;;
53871;SDS011;39787;53.174;5.798;2023-07-16T05:19:51;15.70;;;5.50;;
53871;SDS011;39787;53.174;5.798;2023-07-16T05:20:52;13.57;;;5.37;;
53871;SDS011;39787;53.174;5.798;2023-07-16T05:21:52;15.60;;;6.77;;
53871;SDS011;39787;53.174;5.798;2023-07-16T05:22:53;12.63;;;5.87;;
53871;SDS011;39787;53.174;5.798;2023-07-16T05:23:53;13.03;;;5.83;;
53871;SDS011;39787;53.174;5.798;2023-07-16T05:24:54;13.40;;;5.60;;
53871;SDS011;39787;53.174;5.798;2023-07-16T05:25:54;16.30;;;6.80;;
53871;SDS011;39787;53.174;5.798;2023-07-16T05:26:55;15.60;;;5.20;;
53871;SDS011;39787;53.174;5.798;2023-07-16T05:27:55;15.13;;;6.93;;
53871;SDS011;39787;53.174;5.798;2023-07-16T05:28:56;17.37;;;6.47;;
53871;SDS011;39787;53.174;5.798;2023-07-16T05:29:56;17.93;;;5.80;;
53871;SDS011;39787;53.174;5.798;2023-07-16T05:30:57;20.03;;;6.57;;
53871;SDS011;39787;53.174;5.798;2023-07-16T05:32:02;15.13;;;6.82;;
53871;SDS011;39787;53.174;5.798;2023-07-16T05:33:03;18.77;;;6.15;;
53871;SDS011;39787;53.174;5.798;2023-07-16T05:34:03;15.93;;;6.30;;
53871;SDS011;39787;53.174;5.798;2023-07-16T05:35:04;18.23;;;6.40;;
53871;SDS011;39787;53.174;5.798;2023-07-16T05:36:05;16.00;;;5.82;;
53871;SDS011;39787;53.174;5.798;2023-07-16T05:37:05;22.97;;;7.03;;
53871;SDS011;39787;53.174;5.798;2023-07-16T05:38:06;17.00;;;6.03;;
53871;SDS011;39787;53.174;5.798;2023-07-16T05:39:06;18.43;;;5.70;;
53871;SDS011;39787;53.174;5.798;2023-07-16T05:40:07;19.27;;;6.73;;
53871;SDS011;39787;53.174;5.798;2023-07-16T05:41:07;14.65;;;5.55;;
53871;SDS011;39787;53.174;5.798;2023-07-16T05:42:08;16.87;;;6.70;;
53871;SDS011;39787;53.174;5.798;2023-07-16T05:43:08;13.87;;;5.70;;
53871;SDS011;39787;53.174;5.798;2023-07-16T05:44:09;17.73;;;7.03;;
53871;SDS011;39787;53.174;5.798;2023-07-16T05:45:10;13.05;;;5.40;;
53871;SDS011;39787;53.174;5.798;2023-07-16T05:46:10;17.43;;;5.53;;
53871;SDS011;39787;53.174;5.798;2023-07-16T05:47:11;15.57;;;6.00;;
53871;SDS011;39787;53.174;5.798;2023-07-16T05:48:11;13.47;;;4.90;;
53871;SDS011;39787;53.174;5.798;2023-07-16T05:49:13;14.83;;;5.33;;
53871;SDS011;39787;53.174;5.798;2023-07-16T05:50:13;12.10;;;5.03;;
53871;SDS011;39787;53.174;5.798;2023-07-16T05:51:14;16.77;;;5.03;;
53871;SDS011;39787;53.174;5.798;2023-07-16T05:52:14;11.93;;;4.97;;
53871;SDS011;39787;53.174;5.798;2023-07-16T05:53:15;15.13;;;5.33;;
53871;SDS011;39787;53.174;5.798;2023-07-16T05:54:15;14.67;;;4.87;;
53871;SDS011;39787;53.174;5.798;2023-07-16T05:55:16;13.27;;;4.78;;
53871;SDS011;39787;53.174;5.798;2023-07-16T05:56:17;15.70;;;4.93;;
53871;SDS011;39787;53.174;5.798;2023-07-16T05:57:17;14.87;;;5.43;;
53871;SDS011;39787;53.174;5.798;2023-07-16T05:58:18;13.87;;;4.50;;
53871;SDS011;39787;53.174;5.798;2023-07-16T05:59:18;14.93;;;5.30;;
53871;SDS011;39787;53.174;5.798;2023-07-16T06:00:19;11.07;;;4.87;;
53871;SDS011;39787;53.174;5.798;2023-07-16T06:01:19;12.90;;;4.97;;
53871;SDS011;39787;53.174;5.798;2023-07-16T06:02:20;13.43;;;4.30;;
53871;SDS011;39787;53.174;5.798;2023-07-16T06:03:20;11.50;;;4.43;;
53871;SDS011;39787;53.174;5.798;2023-07-16T06:04:21;13.70;;;4.20;;
53871;SDS011;39787;53.174;5.798;2023-07-16T06:05:21;16.70;;;5.27;;
53871;SDS011;39787;53.174;5.798;2023-07-16T06:06:22;12.07;;;4.77;;
53871;SDS011;39787;53.174;5.798;2023-07-16T06:07:22;13.70;;;5.10;;
53871;SDS011;39787;53.174;5.798;2023-07-16T06:08:23;12.23;;;4.57;;
53871;SDS011;39787;53.174;5.798;2023-07-16T06:09:23;10.23;;;4.40;;